Seamaster — ZMV7638 — position and weather

sailwx.info

Track history (hours):
 
Tides and Currents Weather Stations Pressure Air Temp Water Temp Dewpoint Dewpoint Depression Visibility Wind Speed Wind Dir Waves Ship Positions

Seamaster

Last reported at 2014-Oct-25 23:33 UTC. Time now 2014-Oct-26 01:14 UTC.
Position S 36°50' E 174°57'.

Length 44 m.

Type: Passenger vessel. MMSI: 512001027.

Date/timePositionNaut miles runAvg speedWind from/ knotsBaromVisibWave heightAir tempDewpointWater temp
2014-Oct-25 23:33S 36°50' E 174°57'3 2.9
2014-Oct-25 22:30S 36°52' E 174°54'2 1.0
2014-Oct-25 20:29S 36°50' E 174°56'2 2.1
2014-Oct-25 19:27S 36°52' E 174°54'3 1.4
2014-Oct-25 17:33S 36°50' E 174°56'3 0.2
2014-Oct-25 04:29S 36°52' E 174°54'6 4.6
2014-Oct-25 03:12S 36°49' E 175°00'6 9.0
2014-Oct-25 02:31S 36°50' E 174°53'2 2.2
2014-Oct-25 01:29S 36°52' E 174°54'2 1.1
2014-Oct-24 23:32S 36°50' E 174°56'2 2.1
2014-Oct-24 22:28S 36°52' E 174°54'3 1.4
2014-Oct-24 20:33S 36°50' E 174°56'3 2.6
2014-Oct-24 19:31S 36°52' E 174°54'1 0.4
2014-Oct-24 17:18S 36°51' E 174°54'1 0.1
2014-Oct-24 04:32S 36°52' E 174°54'6 4.2
2014-Oct-24 03:07S 36°49' E 175°01'6 9.3
2014-Oct-24 02:29S 36°51' E 174°54'0 0.5
2014-Oct-24 01:33S 36°51' E 174°53'3 1.5
2014-Oct-23 23:33S 36°50' E 174°56'3 2.6
2014-Oct-23 22:29S 36°52' E 174°54'3 1.3
2014-Oct-23 20:32S 36°50' E 174°56'3 3.0
2014-Oct-23 19:31S 36°53' E 174°54'7 7.3
2014-Oct-23 18:34S 36°49' E 175°02'5 4.9
2014-Oct-23 17:32S 36°50' E 174°55'3 2.2
2014-Oct-23 16:14S 36°53' E 174°54'1 0.1
2014-Oct-23 04:29S 36°52' E 174°54'2 1.1
2014-Oct-23 02:31S 36°50' E 174°56'3 2.1
2014-Oct-23 01:12S 36°53' E 174°54'1 0.3
2014-Oct-22 22:28S 36°52' E 174°54'3 1.5
2014-Oct-22 20:31S 36°50' E 174°57'3 3.3
2014-Oct-22 19:28S 36°53' E 174°54'7 7.7
2014-Oct-22 18:33S 36°49' E 175°01'4 3.9
2014-Oct-22 17:33S 36°50' E 174°57'4 3.1
2014-Oct-22 16:25S 36°53' E 174°54'0 0.0
2014-Oct-22 15:33S 36°53' E 174°54'0 0.0
2014-Oct-22 14:31S 36°53' E 174°54'0 0.0
2014-Oct-22 13:13S 36°53' E 174°54'2 2.7
2014-Oct-22 12:28S 36°51' E 174°54'8 8.4
2014-Oct-22 11:33S 36°45' E 174°59'3 0.2
2014-Oct-21 22:31S 36°47' E 174°57'6 2.0
2014-Oct-21 19:28S 36°53' E 174°54'3 1.4
2014-Oct-21 17:32S 36°50' E 174°56'3 2.6
2014-Oct-21 16:25S 36°53' E 174°54'0 0.1
2014-Oct-21 15:32S 36°53' E 174°54'0 0.0
2014-Oct-21 04:33S 36°53' E 174°54'3 1.4
2014-Oct-21 02:30S 36°50' E 174°56'2 0.3
2014-Oct-20 19:27S 36°52' E 174°54'1 0.4
2014-Oct-20 17:14S 36°51' E 174°54'2 0.1
2014-Oct-20 05:12S 36°53' E 174°54'1 1.2
2014-Oct-20 04:33S 36°52' E 174°54'1 0.6
2014-Oct-20 02:23S 36°51' E 174°54'1 0.8
2014-Oct-20 01:33S 36°51' E 174°54'0 0.0
2014-Oct-19 22:29S 36°52' E 174°54'1 0.3
2014-Oct-19 19:17S 36°51' E 174°54'1 0.3
2014-Oct-19 17:15S 36°51' E 174°54'0 0.0
2014-Oct-19 04:28S 36°52' E 174°54'0 0.2
2014-Oct-19 02:13S 36°51' E 174°54'0 0.3
2014-Oct-19 01:28S 36°52' E 174°54'0 0.2
2014-Oct-18 23:20S 36°51' E 174°54'1 1.0
2014-Oct-18 22:30S 36°52' E 174°54'3 0.6
2014-Oct-18 17:33S 36°50' E 174°57'3 0.2
2014-Oct-18 04:18S 36°51' E 174°54'2 1.2
2014-Oct-18 02:29S 36°50' E 174°56'2 2.1
2014-Oct-18 01:24S 36°52' E 174°54'1 0.5
2014-Oct-17 23:14S 36°51' E 174°54'1 1.0
2014-Oct-17 22:26S 36°52' E 174°54'0 0.0
2014-Oct-17 04:33S 36°52' E 174°54'1 0.3
2014-Oct-17 02:16S 36°51' E 174°54'2 2.4
2014-Oct-17 01:33S 36°53' E 174°54'2 0.9
2014-Oct-16 23:21S 36°51' E 174°54'1 1.8
2014-Oct-16 22:32S 36°52' E 174°54'1 0.4
2014-Oct-16 20:17S 36°51' E 174°54'1 0.8
2014-Oct-16 19:28S 36°52' E 174°54'1 0.1
2014-Oct-16 01:22S 36°51' E 174°54'  
Track history (hours):
 
Tides and Currents Weather Stations Pressure Air Temp Water Temp Dewpoint Dewpoint Depression Visibility Wind Speed Wind Dir Waves Ship Positions

Seamaster

Last reported at 2014-Oct-25 23:33 UTC. Time now 2014-Oct-26 01:14 UTC.
Position S 36°50' E 174°57'.

Length 44 m.

Type: Passenger vessel. MMSI: 512001027.

Date/timePositionNaut miles runAvg speedWind from/ knotsBaromVisibWave heightAir tempDewpointWater temp
2014-Oct-25 23:33S 36°50' E 174°57'3 2.9
2014-Oct-25 22:30S 36°52' E 174°54'2 1.0
2014-Oct-25 20:29S 36°50' E 174°56'2 2.1
2014-Oct-25 19:27S 36°52' E 174°54'3 1.4
2014-Oct-25 17:33S 36°50' E 174°56'3 0.2
2014-Oct-25 04:29S 36°52' E 174°54'6 4.6
2014-Oct-25 03:12S 36°49' E 175°00'6 9.0
2014-Oct-25 02:31S 36°50' E 174°53'2 2.2
2014-Oct-25 01:29S 36°52' E 174°54'2 1.1
2014-Oct-24 23:32S 36°50' E 174°56'2 2.1
2014-Oct-24 22:28S 36°52' E 174°54'3 1.4
2014-Oct-24 20:33S 36°50' E 174°56'3 2.6
2014-Oct-24 19:31S 36°52' E 174°54'1 0.4
2014-Oct-24 17:18S 36°51' E 174°54'1 0.1
2014-Oct-24 04:32S 36°52' E 174°54'6 4.2
2014-Oct-24 03:07S 36°49' E 175°01'6 9.3
2014-Oct-24 02:29S 36°51' E 174°54'0 0.5
2014-Oct-24 01:33S 36°51' E 174°53'3 1.5
2014-Oct-23 23:33S 36°50' E 174°56'3 2.6
2014-Oct-23 22:29S 36°52' E 174°54'3 1.3
2014-Oct-23 20:32S 36°50' E 174°56'3 3.0
2014-Oct-23 19:31S 36°53' E 174°54'7 7.3
2014-Oct-23 18:34S 36°49' E 175°02'5 4.9
2014-Oct-23 17:32S 36°50' E 174°55'3 2.2
2014-Oct-23 16:14S 36°53' E 174°54'1 0.1
2014-Oct-23 04:29S 36°52' E 174°54'2 1.1
2014-Oct-23 02:31S 36°50' E 174°56'3 2.1
2014-Oct-23 01:12S 36°53' E 174°54'1 0.3
2014-Oct-22 22:28S 36°52' E 174°54'3 1.5
2014-Oct-22 20:31S 36°50' E 174°57'3 3.3
2014-Oct-22 19:28S 36°53' E 174°54'7 7.7
2014-Oct-22 18:33S 36°49' E 175°01'4 3.9
2014-Oct-22 17:33S 36°50' E 174°57'4 3.1
2014-Oct-22 16:25S 36°53' E 174°54'0 0.0
2014-Oct-22 15:33S 36°53' E 174°54'0 0.0
2014-Oct-22 14:31S 36°53' E 174°54'0 0.0
2014-Oct-22 13:13S 36°53' E 174°54'2 2.7
2014-Oct-22 12:28S 36°51' E 174°54'8 8.4
2014-Oct-22 11:33S 36°45' E 174°59'3 0.2
2014-Oct-21 22:31S 36°47' E 174°57'6 2.0
2014-Oct-21 19:28S 36°53' E 174°54'3 1.4
2014-Oct-21 17:32S 36°50' E 174°56'3 2.6
2014-Oct-21 16:25S 36°53' E 174°54'0 0.1
2014-Oct-21 15:32S 36°53' E 174°54'0 0.0
2014-Oct-21 04:33S 36°53' E 174°54'3 1.4
2014-Oct-21 02:30S 36°50' E 174°56'2 0.3
2014-Oct-20 19:27S 36°52' E 174°54'1 0.4
2014-Oct-20 17:14S 36°51' E 174°54'2 0.1
2014-Oct-20 05:12S 36°53' E 174°54'1 1.2
2014-Oct-20 04:33S 36°52' E 174°54'1 0.6
2014-Oct-20 02:23S 36°51' E 174°54'1 0.8
2014-Oct-20 01:33S 36°51' E 174°54'0 0.0
2014-Oct-19 22:29S 36°52' E 174°54'1 0.3
2014-Oct-19 19:17S 36°51' E 174°54'1 0.3
2014-Oct-19 17:15S 36°51' E 174°54'0 0.0
2014-Oct-19 04:28S 36°52' E 174°54'0 0.2
2014-Oct-19 02:13S 36°51' E 174°54'0 0.3
2014-Oct-19 01:28S 36°52' E 174°54'0 0.2
2014-Oct-18 23:20S 36°51' E 174°54'1 1.0
2014-Oct-18 22:30S 36°52' E 174°54'3 0.6
2014-Oct-18 17:33S 36°50' E 174°57'3 0.2
2014-Oct-18 04:18S 36°51' E 174°54'2 1.2
2014-Oct-18 02:29S 36°50' E 174°56'2 2.1
2014-Oct-18 01:24S 36°52' E 174°54'1 0.5
2014-Oct-17 23:14S 36°51' E 174°54'1 1.0
2014-Oct-17 22:26S 36°52' E 174°54'0 0.0
2014-Oct-17 04:33S 36°52' E 174°54'1 0.3
2014-Oct-17 02:16S 36°51' E 174°54'2 2.4
2014-Oct-17 01:33S 36°53' E 174°54'2 0.9
2014-Oct-16 23:21S 36°51' E 174°54'1 1.8
2014-Oct-16 22:32S 36°52' E 174°54'1 0.4
2014-Oct-16 20:17S 36°51' E 174°54'1 0.8
2014-Oct-16 19:28S 36°52' E 174°54'1 0.1
2014-Oct-16 01:22S 36°51' E 174°54'  

Dump ship's entire track history